sensor_id;sensor_type;location;lat;lon;timestamp;pressure;altitude;pressure_sealevel;temperature;humidity
12536;BME280;6334;48.696;2.114;2022-11-15T00:01:08;99299.83;;;10.53;100.00
12536;BME280;6334;48.696;2.114;2022-11-15T00:03:40;99300.41;;;10.73;100.00
12536;BME280;6334;48.696;2.114;2022-11-15T00:06:10;99298.34;;;10.60;100.00
12536;BME280;6334;48.696;2.114;2022-11-15T00:08:40;99289.12;;;10.51;100.00
12536;BME280;6334;48.696;2.114;2022-11-15T00:11:13;99296.91;;;10.46;100.00
12536;BME280;6334;48.696;2.114;2022-11-15T00:13:42;99295.18;;;10.54;100.00
12536;BME280;6334;48.696;2.114;2022-11-15T00:16:12;99286.28;;;10.62;100.00
12536;BME280;6334;48.696;2.114;2022-11-15T00:18:50;99284.36;;;10.43;100.00
12536;BME280;6334;48.696;2.114;2022-11-15T00:21:21;99284.20;;;10.25;100.00
12536;BME280;6334;48.696;2.114;2022-11-15T00:23:51;99281.62;;;10.46;100.00
12536;BME280;6334;48.696;2.114;2022-11-15T00:26:20;99279.28;;;10.12;100.00
12536;BME280;6334;48.696;2.114;2022-11-15T00:28:59;99271.66;;;10.23;100.00
12536;BME280;6334;48.696;2.114;2022-11-15T00:31:29;99271.81;;;10.23;100.00
12536;BME280;6334;48.696;2.114;2022-11-15T00:33:59;99265.88;;;10.18;100.00
12536;BME280;6334;48.696;2.114;2022-11-15T00:36:29;99263.31;;;10.26;100.00
12536;BME280;6334;48.696;2.114;2022-11-15T00:38:58;99259.02;;;10.35;100.00
12536;BME280;6334;48.696;2.114;2022-11-15T00:41:30;99256.56;;;10.30;100.00
12536;BME280;6334;48.696;2.114;2022-11-15T00:44:02;99258.57;;;10.19;100.00
12536;BME280;6334;48.696;2.114;2022-11-15T00:46:34;99257.10;;;10.42;100.00
12536;BME280;6334;48.696;2.114;2022-11-15T00:49:04;99251.44;;;10.19;100.00
12536;BME280;6334;48.696;2.114;2022-11-15T00:51:34;99253.24;;;10.46;100.00
12536;BME280;6334;48.696;2.114;2022-11-15T00:54:09;99248.84;;;10.29;100.00
12536;BME280;6334;48.696;2.114;2022-11-15T00:56:39;99244.16;;;10.06;100.00
12536;BME280;6334;48.696;2.114;2022-11-15T00:59:12;99242.79;;;10.11;100.00
12536;BME280;6334;48.696;2.114;2022-11-15T01:01:44;99237.84;;;10.37;100.00
12536;BME280;6334;48.696;2.114;2022-11-15T01:04:14;99233.77;;;10.39;100.00
12536;BME280;6334;48.696;2.114;2022-11-15T01:06:47;99230.32;;;10.12;100.00
12536;BME280;6334;48.696;2.114;2022-11-15T01:09:17;99230.19;;;9.97;100.00
12536;BME280;6334;48.696;2.114;2022-11-15T01:11:48;99227.81;;;10.06;100.00
12536;BME280;6334;48.696;2.114;2022-11-15T01:14:22;99235.06;;;10.15;100.00
12536;BME280;6334;48.696;2.114;2022-11-15T01:16:54;99230.63;;;10.08;100.00
12536;BME280;6334;48.696;2.114;2022-11-15T01:19:24;99226.55;;;9.97;100.00
12536;BME280;6334;48.696;2.114;2022-11-15T01:21:59;99222.75;;;10.09;100.00
12536;BME280;6334;48.696;2.114;2022-11-15T01:24:29;99213.08;;;10.27;100.00
12536;BME280;6334;48.696;2.114;2022-11-15T01:27:00;99213.83;;;10.13;100.00
12536;BME280;6334;48.696;2.114;2022-11-15T01:29:31;99207.77;;;9.83;100.00
12536;BME280;6334;48.696;2.114;2022-11-15T01:32:01;99206.63;;;10.10;100.00
12536;BME280;6334;48.696;2.114;2022-11-15T01:34:31;99202.75;;;10.03;100.00
12536;BME280;6334;48.696;2.114;2022-11-15T01:37:01;99197.72;;;10.13;100.00
12536;BME280;6334;48.696;2.114;2022-11-15T01:39:32;99194.56;;;10.07;100.00
12536;BME280;6334;48.696;2.114;2022-11-15T01:42:08;99190.12;;;10.04;100.00
12536;BME280;6334;48.696;2.114;2022-11-15T01:44:48;99186.06;;;9.87;100.00
12536;BME280;6334;48.696;2.114;2022-11-15T01:47:28;99181.00;;;10.05;100.00
12536;BME280;6334;48.696;2.114;2022-11-15T01:50:04;99175.19;;;10.17;100.00
12536;BME280;6334;48.696;2.114;2022-11-15T01:52:33;99170.06;;;10.01;100.00
12536;BME280;6334;48.696;2.114;2022-11-15T01:55:07;99158.83;;;9.89;100.00
12536;BME280;6334;48.696;2.114;2022-11-15T01:57:35;99153.95;;;9.88;100.00
12536;BME280;6334;48.696;2.114;2022-11-15T02:00:05;99150.03;;;10.17;100.00
12536;BME280;6334;48.696;2.114;2022-11-15T02:02:37;99142.67;;;9.81;100.00
12536;BME280;6334;48.696;2.114;2022-11-15T02:05:13;99138.16;;;9.99;100.00
12536;BME280;6334;48.696;2.114;2022-11-15T02:07:55;99136.09;;;9.92;100.00
12536;BME280;6334;48.696;2.114;2022-11-15T02:10:25;99135.17;;;9.85;100.00
12536;BME280;6334;48.696;2.114;2022-11-15T02:12:55;99134.20;;;9.59;100.00
12536;BME280;6334;48.696;2.114;2022-11-15T02:15:26;99125.55;;;9.97;100.00
12536;BME280;6334;48.696;2.114;2022-11-15T02:18:23;99123.81;;;9.70;100.00
12536;BME280;6334;48.696;2.114;2022-11-15T02:21:02;99121.78;;;9.69;100.00
12536;BME280;6334;48.696;2.114;2022-11-15T02:24:02;99122.18;;;9.47;100.00
12536;BME280;6334;48.696;2.114;2022-11-15T02:31:45;99107.70;;;9.91;100.00
12536;BME280;6334;48.696;2.114;2022-11-15T02:37:02;99092.91;;;9.83;100.00
12536;BME280;6334;48.696;2.114;2022-11-15T02:39:49;99096.09;;;9.79;100.00
12536;BME280;6334;48.696;2.114;2022-11-15T02:42:32;99088.94;;;9.88;100.00
12536;BME280;6334;48.696;2.114;2022-11-15T02:45:23;99078.89;;;9.90;100.00
12536;BME280;6334;48.696;2.114;2022-11-15T02:47:51;99073.55;;;10.03;100.00
12536;BME280;6334;48.696;2.114;2022-11-15T02:50:21;99073.84;;;9.91;100.00
12536;BME280;6334;48.696;2.114;2022-11-15T02:52:56;99063.24;;;10.19;100.00
12536;BME280;6334;48.696;2.114;2022-11-15T02:55:35;99065.70;;;9.78;100.00
12536;BME280;6334;48.696;2.114;2022-11-15T03:04:08;99050.72;;;9.87;100.00
12536;BME280;6334;48.696;2.114;2022-11-15T03:06:41;99048.41;;;9.37;100.00
12536;BME280;6334;48.696;2.114;2022-11-15T03:09:33;99051.05;;;9.72;100.00
12536;BME280;6334;48.696;2.114;2022-11-15T03:12:01;99043.70;;;9.98;100.00
12536;BME280;6334;48.696;2.114;2022-11-15T03:14:32;99043.09;;;10.04;100.00
12536;BME280;6334;48.696;2.114;2022-11-15T03:17:19;99039.87;;;10.18;100.00
12536;BME280;6334;48.696;2.114;2022-11-15T03:19:52;99038.41;;;9.83;100.00
12536;BME280;6334;48.696;2.114;2022-11-15T03:22:19;99033.47;;;9.72;100.00
12536;BME280;6334;48.696;2.114;2022-11-15T03:24:58;99030.94;;;9.75;100.00
12536;BME280;6334;48.696;2.114;2022-11-15T03:27:29;99017.53;;;9.30;100.00
12536;BME280;6334;48.696;2.114;2022-11-15T03:30:02;99028.61;;;9.53;100.00
12536;BME280;6334;48.696;2.114;2022-11-15T03:32:31;99028.20;;;9.76;100.00
12536;BME280;6334;48.696;2.114;2022-11-15T03:35:05;99018.46;;;9.36;100.00
12536;BME280;6334;48.696;2.114;2022-11-15T03:37:49;99025.97;;;9.44;100.00
12536;BME280;6334;48.696;2.114;2022-11-15T03:43:29;99024.29;;;9.41;100.00
12536;BME280;6334;48.696;2.114;2022-11-15T03:45:50;99022.45;;;9.44;100.00
12536;BME280;6334;48.696;2.114;2022-11-15T03:48:27;99018.23;;;9.33;100.00
12536;BME280;6334;48.696;2.114;2022-11-15T03:50:58;99020.65;;;9.15;100.00
12536;BME280;6334;48.696;2.114;2022-11-15T03:53:29;99016.07;;;9.10;100.00
12536;BME280;6334;48.696;2.114;2022-11-15T03:56:11;99013.13;;;9.30;100.00
12536;BME280;6334;48.696;2.114;2022-11-15T03:58:41;99010.30;;;9.05;100.00
12536;BME280;6334;48.696;2.114;2022-11-15T04:01:10;99012.59;;;9.34;100.00
12536;BME280;6334;48.696;2.114;2022-11-15T04:03:43;99007.08;;;9.17;100.00
12536;BME280;6334;48.696;2.114;2022-11-15T04:06:19;99009.39;;;9.43;100.00
12536;BME280;6334;48.696;2.114;2022-11-15T04:08:49;99004.42;;;9.02;100.00
12536;BME280;6334;48.696;2.114;2022-11-15T04:11:27;98999.20;;;9.17;100.00
12536;BME280;6334;48.696;2.114;2022-11-15T04:14:00;99001.18;;;9.19;100.00
12536;BME280;6334;48.696;2.114;2022-11-15T04:16:38;98997.03;;;9.24;100.00
12536;BME280;6334;48.696;2.114;2022-11-15T04:19:08;98999.97;;;9.04;100.00
12536;BME280;6334;48.696;2.114;2022-11-15T04:21:57;98994.30;;;9.31;100.00
12536;BME280;6334;48.696;2.114;2022-11-15T04:24:45;98994.35;;;9.33;100.00
12536;BME280;6334;48.696;2.114;2022-11-15T04:27:20;98990.27;;;9.51;100.00
12536;BME280;6334;48.696;2.114;2022-11-15T04:29:50;98985.52;;;9.36;100.00
12536;BME280;6334;48.696;2.114;2022-11-15T04:32:20;98987.37;;;9.42;100.00
12536;BME280;6334;48.696;2.114;2022-11-15T04:34:50;98986.03;;;9.21;100.00
12536;BME280;6334;48.696;2.114;2022-11-15T04:37:30;98985.73;;;9.35;100.00
12536;BME280;6334;48.696;2.114;2022-11-15T04:40:04;98976.78;;;9.17;100.00
12536;BME280;6334;48.696;2.114;2022-11-15T04:42:37;98972.93;;;9.34;100.00
12536;BME280;6334;48.696;2.114;2022-11-15T04:45:10;98975.44;;;9.36;100.00
12536;BME280;6334;48.696;2.114;2022-11-15T04:47:39;98967.22;;;9.40;100.00
12536;BME280;6334;48.696;2.114;2022-11-15T04:50:09;98958.69;;;9.46;100.00
12536;BME280;6334;48.696;2.114;2022-11-15T04:52:49;98943.50;;;9.55;100.00
12536;BME280;6334;48.696;2.114;2022-11-15T04:55:13;98943.73;;;9.41;100.00
12536;BME280;6334;48.696;2.114;2022-11-15T04:57:43;98945.67;;;9.38;100.00
12536;BME280;6334;48.696;2.114;2022-11-15T05:00:14;98937.90;;;9.49;100.00
12536;BME280;6334;48.696;2.114;2022-11-15T05:02:47;98937.75;;;9.53;100.00
12536;BME280;6334;48.696;2.114;2022-11-15T05:05:36;98938.97;;;9.50;100.00
12536;BME280;6334;48.696;2.114;2022-11-15T05:08:05;98936.48;;;9.19;100.00
12536;BME280;6334;48.696;2.114;2022-11-15T05:10:37;98943.02;;;9.40;100.00
12536;BME280;6334;48.696;2.114;2022-11-15T05:13:10;98941.18;;;9.49;100.00
12536;BME280;6334;48.696;2.114;2022-11-15T05:15:40;98937.30;;;9.60;100.00
12536;BME280;6334;48.696;2.114;2022-11-15T05:18:19;98932.70;;;9.46;100.00
12536;BME280;6334;48.696;2.114;2022-11-15T05:20:49;98939.44;;;9.55;100.00
12536;BME280;6334;48.696;2.114;2022-11-15T05:23:34;98937.82;;;9.66;100.00
12536;BME280;6334;48.696;2.114;2022-11-15T05:26:06;98937.44;;;9.55;100.00
12536;BME280;6334;48.696;2.114;2022-11-15T05:29:02;98939.58;;;9.65;100.00
12536;BME280;6334;48.696;2.114;2022-11-15T05:31:36;98936.22;;;9.79;100.00
12536;BME280;6334;48.696;2.114;2022-11-15T05:34:06;98938.55;;;9.52;100.00
12536;BME280;6334;48.696;2.114;2022-11-15T05:36:45;98935.71;;;9.88;100.00
12536;BME280;6334;48.696;2.114;2022-11-15T05:39:19;98927.34;;;9.79;100.00
12536;BME280;6334;48.696;2.114;2022-11-15T05:41:50;98921.66;;;9.72;100.00
12536;BME280;6334;48.696;2.114;2022-11-15T05:44:19;98919.77;;;9.98;100.00
12536;BME280;6334;48.696;2.114;2022-11-15T05:46:49;98919.73;;;9.81;100.00
12536;BME280;6334;48.696;2.114;2022-11-15T05:49:21;98917.61;;;9.77;100.00
12536;BME280;6334;48.696;2.114;2022-11-15T05:51:50;98916.11;;;9.52;100.00
12536;BME280;6334;48.696;2.114;2022-11-15T05:54:35;98919.58;;;9.77;100.00
12536;BME280;6334;48.696;2.114;2022-11-15T05:57:11;98916.33;;;9.82;100.00
12536;BME280;6334;48.696;2.114;2022-11-15T05:59:40;98910.23;;;10.01;100.00
12536;BME280;6334;48.696;2.114;2022-11-15T06:02:14;98905.83;;;9.78;100.00
12536;BME280;6334;48.696;2.114;2022-11-15T06:04:45;98898.80;;;10.08;100.00
12536;BME280;6334;48.696;2.114;2022-11-15T06:07:15;98910.53;;;9.91;100.00
12536;BME280;6334;48.696;2.114;2022-11-15T06:09:45;98911.96;;;9.72;100.00
12536;BME280;6334;48.696;2.114;2022-11-15T06:12:14;98891.81;;;9.77;100.00
12536;BME280;6334;48.696;2.114;2022-11-15T06:14:44;98877.48;;;9.73;100.00
12536;BME280;6334;48.696;2.114;2022-11-15T06:23:34;98859.08;;;9.94;100.00
12536;BME280;6334;48.696;2.114;2022-11-15T06:26:05;98855.02;;;9.91;100.00
12536;BME280;6334;48.696;2.114;2022-11-15T06:28:34;98849.61;;;10.04;100.00
12536;BME280;6334;48.696;2.114;2022-11-15T06:34:09;98851.08;;;9.62;100.00
12536;BME280;6334;48.696;2.114;2022-11-15T06:36:39;98851.59;;;10.22;100.00
12536;BME280;6334;48.696;2.114;2022-11-15T06:39:21;98846.23;;;10.03;100.00
12536;BME280;6334;48.696;2.114;2022-11-15T06:41:51;98841.13;;;10.79;100.00
12536;BME280;6334;48.696;2.114;2022-11-15T06:44:21;98834.42;;;10.63;100.00
12536;BME280;6334;48.696;2.114;2022-11-15T06:46:51;98821.21;;;10.14;100.00
12536;BME280;6334;48.696;2.114;2022-11-15T06:49:21;98809.66;;;10.14;100.00
12536;BME280;6334;48.696;2.114;2022-11-15T06:51:56;98809.47;;;9.73;100.00
12536;BME280;6334;48.696;2.114;2022-11-15T06:54:27;98797.98;;;9.85;100.00
12536;BME280;6334;48.696;2.114;2022-11-15T06:56:57;98795.27;;;10.03;100.00
12536;BME280;6334;48.696;2.114;2022-11-15T06:59:28;98803.26;;;9.82;100.00
12536;BME280;6334;48.696;2.114;2022-11-15T07:01:59;98806.11;;;9.98;100.00
12536;BME280;6334;48.696;2.114;2022-11-15T07:04:44;98802.20;;;10.10;100.00
12536;BME280;6334;48.696;2.114;2022-11-15T07:07:28;98800.27;;;9.95;100.00
12536;BME280;6334;48.696;2.114;2022-11-15T07:10:00;98810.69;;;10.11;100.00
12536;BME280;6334;48.696;2.114;2022-11-15T07:12:31;98805.13;;;10.07;100.00
12536;BME280;6334;48.696;2.114;2022-11-15T07:15:01;98801.90;;;10.02;100.00
12536;BME280;6334;48.696;2.114;2022-11-15T07:17:31;98804.50;;;9.91;100.00
12536;BME280;6334;48.696;2.114;2022-11-15T07:20:02;98800.86;;;9.97;100.00
12536;BME280;6334;48.696;2.114;2022-11-15T07:22:32;98798.00;;;10.03;100.00
12536;BME280;6334;48.696;2.114;2022-11-15T07:25:02;98803.75;;;10.29;100.00
12536;BME280;6334;48.696;2.114;2022-11-15T07:27:40;98798.08;;;10.28;100.00
12536;BME280;6334;48.696;2.114;2022-11-15T07:30:15;98793.38;;;10.13;100.00
12536;BME280;6334;48.696;2.114;2022-11-15T07:32:45;98785.86;;;10.28;100.00
12536;BME280;6334;48.696;2.114;2022-11-15T07:35:15;98791.73;;;10.42;100.00
12536;BME280;6334;48.696;2.114;2022-11-15T07:37:52;98791.41;;;10.25;100.00
12536;BME280;6334;48.696;2.114;2022-11-15T07:40:16;98782.23;;;10.03;100.00
12536;BME280;6334;48.696;2.114;2022-11-15T07:42:46;98783.34;;;10.15;100.00
12536;BME280;6334;48.696;2.114;2022-11-15T07:45:26;98783.41;;;10.17;100.00
12536;BME280;6334;48.696;2.114;2022-11-15T07:48:03;98776.57;;;9.93;100.00
12536;BME280;6334;48.696;2.114;2022-11-15T07:50:36;98773.37;;;10.55;100.00
12536;BME280;6334;48.696;2.114;2022-11-15T07:53:11;98766.28;;;10.29;100.00
12536;BME280;6334;48.696;2.114;2022-11-15T07:55:50;98734.08;;;10.19;100.00
12536;BME280;6334;48.696;2.114;2022-11-15T07:58:20;98745.90;;;10.30;100.00
12536;BME280;6334;48.696;2.114;2022-11-15T08:00:50;98760.78;;;10.29;100.00
12536;BME280;6334;48.696;2.114;2022-11-15T08:03:21;98759.34;;;10.43;100.00
12536;BME280;6334;48.696;2.114;2022-11-15T08:05:52;98754.16;;;10.41;100.00
12536;BME280;6334;48.696;2.114;2022-11-15T08:08:23;98755.31;;;10.42;100.00
12536;BME280;6334;48.696;2.114;2022-11-15T08:10:54;98759.00;;;10.48;100.00
12536;BME280;6334;48.696;2.114;2022-11-15T08:13:31;98757.33;;;10.55;100.00
12536;BME280;6334;48.696;2.114;2022-11-15T08:16:08;98760.52;;;10.74;100.00
12536;BME280;6334;48.696;2.114;2022-11-15T08:18:46;98755.16;;;10.89;100.00
12536;BME280;6334;48.696;2.114;2022-11-15T08:21:24;98757.64;;;10.81;100.00
12536;BME280;6334;48.696;2.114;2022-11-15T08:23:58;98751.31;;;10.68;100.00
12536;BME280;6334;48.696;2.114;2022-11-15T08:26:33;98749.11;;;10.68;100.00
12536;BME280;6334;48.696;2.114;2022-11-15T08:29:08;98739.11;;;10.95;100.00
12536;BME280;6334;48.696;2.114;2022-11-15T08:32:24;98738.78;;;10.64;100.00
12536;BME280;6334;48.696;2.114;2022-11-15T08:35:20;98739.06;;;10.76;100.00
12536;BME280;6334;48.696;2.114;2022-11-15T08:38:01;98735.16;;;10.95;100.00
12536;BME280;6334;48.696;2.114;2022-11-15T08:40:32;98733.27;;;10.97;100.00
12536;BME280;6334;48.696;2.114;2022-11-15T08:43:09;98727.90;;;10.86;100.00
12536;BME280;6334;48.696;2.114;2022-11-15T08:45:40;98718.94;;;11.15;100.00
12536;BME280;6334;48.696;2.114;2022-11-15T08:48:29;98697.72;;;10.87;100.00
12536;BME280;6334;48.696;2.114;2022-11-15T08:50:59;98709.79;;;11.25;100.00
12536;BME280;6334;48.696;2.114;2022-11-15T08:53:33;98703.02;;;11.21;100.00
12536;BME280;6334;48.696;2.114;2022-11-15T08:56:09;98706.25;;;10.87;100.00
12536;BME280;6334;48.696;2.114;2022-11-15T08:58:41;98707.79;;;11.02;100.00
12536;BME280;6334;48.696;2.114;2022-11-15T09:01:16;98708.67;;;10.91;100.00
12536;BME280;6334;48.696;2.114;2022-11-15T09:03:47;98712.56;;;11.03;100.00
12536;BME280;6334;48.696;2.114;2022-11-15T09:06:16;98708.62;;;11.14;100.00
12536;BME280;6334;48.696;2.114;2022-11-15T09:08:47;98716.62;;;11.04;100.00
12536;BME280;6334;48.696;2.114;2022-11-15T09:11:36;98708.72;;;10.87;100.00
12536;BME280;6334;48.696;2.114;2022-11-15T09:14:12;98712.89;;;11.08;100.00
12536;BME280;6334;48.696;2.114;2022-11-15T09:16:41;98715.72;;;11.25;100.00
12536;BME280;6334;48.696;2.114;2022-11-15T09:19:12;98709.05;;;11.22;100.00
12536;BME280;6334;48.696;2.114;2022-11-15T09:21:43;98706.94;;;11.06;100.00
12536;BME280;6334;48.696;2.114;2022-11-15T09:24:14;98710.74;;;11.20;100.00
12536;BME280;6334;48.696;2.114;2022-11-15T09:26:51;98709.72;;;11.08;100.00
12536;BME280;6334;48.696;2.114;2022-11-15T09:29:27;98713.83;;;11.07;100.00
12536;BME280;6334;48.696;2.114;2022-11-15T09:31:57;98710.78;;;11.17;100.00
12536;BME280;6334;48.696;2.114;2022-11-15T09:34:31;98705.31;;;11.02;100.00
12536;BME280;6334;48.696;2.114;2022-11-15T09:37:03;98709.55;;;11.06;100.00
12536;BME280;6334;48.696;2.114;2022-11-15T09:39:35;98704.36;;;10.86;100.00
12536;BME280;6334;48.696;2.114;2022-11-15T09:48:03;98686.16;;;11.22;100.00
12536;BME280;6334;48.696;2.114;2022-11-15T09:51:02;98685.89;;;11.09;100.00
12536;BME280;6334;48.696;2.114;2022-11-15T09:56:21;98674.91;;;11.18;100.00
12536;BME280;6334;48.696;2.114;2022-11-15T09:59:10;98671.63;;;11.28;100.00
12536;BME280;6334;48.696;2.114;2022-11-15T10:04:24;98657.16;;;11.23;100.00
12536;BME280;6334;48.696;2.114;2022-11-15T10:07:14;98654.31;;;11.18;100.00
12536;BME280;6334;48.696;2.114;2022-11-15T10:09:42;98652.22;;;11.21;100.00
12536;BME280;6334;48.696;2.114;2022-11-15T10:12:08;98652.86;;;11.41;100.00
12536;BME280;6334;48.696;2.114;2022-11-15T10:14:38;98652.48;;;11.22;100.00
12536;BME280;6334;48.696;2.114;2022-11-15T10:23:33;98634.64;;;11.40;100.00
12536;BME280;6334;48.696;2.114;2022-11-15T10:26:04;98633.06;;;11.37;100.00
12536;BME280;6334;48.696;2.114;2022-11-15T10:29:32;98621.84;;;11.21;100.00
12536;BME280;6334;48.696;2.114;2022-11-15T10:32:03;98619.45;;;11.23;100.00
12536;BME280;6334;48.696;2.114;2022-11-15T10:34:35;98618.97;;;11.35;100.00
12536;BME280;6334;48.696;2.114;2022-11-15T10:37:10;98620.50;;;11.32;100.00
12536;BME280;6334;48.696;2.114;2022-11-15T10:39:39;98610.15;;;11.47;100.00
12536;BME280;6334;48.696;2.114;2022-11-15T10:42:16;98610.12;;;11.43;100.00
12536;BME280;6334;48.696;2.114;2022-11-15T10:45:24;98618.72;;;11.39;100.00
12536;BME280;6334;48.696;2.114;2022-11-15T10:47:53;98595.99;;;11.21;100.00
12536;BME280;6334;48.696;2.114;2022-11-15T10:50:32;98587.88;;;11.56;100.00
12536;BME280;6334;48.696;2.114;2022-11-15T10:53:03;98591.69;;;11.20;100.00
12536;BME280;6334;48.696;2.114;2022-11-15T10:55:34;98585.63;;;11.41;100.00
12536;BME280;6334;48.696;2.114;2022-11-15T10:58:31;98575.46;;;11.44;100.00
12536;BME280;6334;48.696;2.114;2022-11-15T11:01:25;98577.44;;;11.51;100.00
12536;BME280;6334;48.696;2.114;2022-11-15T11:04:03;98568.69;;;11.45;100.00
12536;BME280;6334;48.696;2.114;2022-11-15T11:06:59;98569.23;;;11.49;100.00
12536;BME280;6334;48.696;2.114;2022-11-15T11:09:37;98560.23;;;11.46;100.00
12536;BME280;6334;48.696;2.114;2022-11-15T11:12:11;98559.77;;;11.36;100.00
12536;BME280;6334;48.696;2.114;2022-11-15T11:14:41;98564.10;;;11.63;100.00
12536;BME280;6334;48.696;2.114;2022-11-15T11:17:14;98559.16;;;11.35;100.00
12536;BME280;6334;48.696;2.114;2022-11-15T11:20:14;98557.58;;;11.47;100.00
12536;BME280;6334;48.696;2.114;2022-11-15T11:26:13;98507.05;;;11.19;100.00
12536;BME280;6334;48.696;2.114;2022-11-15T11:28:49;98540.38;;;11.63;100.00
12536;BME280;6334;48.696;2.114;2022-11-15T11:39:38;98529.58;;;11.47;100.00
12536;BME280;6334;48.696;2.114;2022-11-15T11:44:50;98516.88;;;11.37;100.00
12536;BME280;6334;48.696;2.114;2022-11-15T11:47:32;98516.82;;;11.44;100.00
12536;BME280;6334;48.696;2.114;2022-11-15T11:50:18;98506.17;;;11.68;100.00
12536;BME280;6334;48.696;2.114;2022-11-15T11:52:57;98498.34;;;11.62;100.00
12536;BME280;6334;48.696;2.114;2022-11-15T11:58:17;98496.62;;;11.64;100.00
12536;BME280;6334;48.696;2.114;2022-11-15T12:05:51;98484.89;;;11.66;100.00
12536;BME280;6334;48.696;2.114;2022-11-15T12:11:16;98473.77;;;11.84;100.00
12536;BME280;6334;48.696;2.114;2022-11-15T12:13:44;98466.56;;;11.69;100.00
12536;BME280;6334;48.696;2.114;2022-11-15T12:16:18;98472.82;;;11.81;100.00
12536;BME280;6334;48.696;2.114;2022-11-15T12:18:51;98470.95;;;12.07;100.00
12536;BME280;6334;48.696;2.114;2022-11-15T12:24:45;98456.06;;;11.94;100.00
12536;BME280;6334;48.696;2.114;2022-11-15T12:27:16;98449.91;;;12.06;100.00
12536;BME280;6334;48.696;2.114;2022-11-15T12:29:50;98445.30;;;11.95;100.00
12536;BME280;6334;48.696;2.114;2022-11-15T12:32:32;98446.20;;;11.93;100.00
12536;BME280;6334;48.696;2.114;2022-11-15T12:35:01;98437.86;;;12.05;100.00
12536;BME280;6334;48.696;2.114;2022-11-15T12:42:41;98419.48;;;12.02;100.00
12536;BME280;6334;48.696;2.114;2022-11-15T12:45:35;98419.64;;;12.22;100.00
12536;BME280;6334;48.696;2.114;2022-11-15T12:50:57;98407.13;;;12.27;100.00
12536;BME280;6334;48.696;2.114;2022-11-15T12:58:51;98394.83;;;12.21;100.00
12536;BME280;6334;48.696;2.114;2022-11-15T13:04:27;98389.77;;;12.29;100.00
12536;BME280;6334;48.696;2.114;2022-11-15T13:07:02;98384.69;;;12.25;100.00
12536;BME280;6334;48.696;2.114;2022-11-15T13:09:50;98385.42;;;12.37;100.00
12536;BME280;6334;48.696;2.114;2022-11-15T13:15:08;98377.34;;;12.09;100.00
12536;BME280;6334;48.696;2.114;2022-11-15T13:17:35;98372.09;;;12.12;100.00
12536;BME280;6334;48.696;2.114;2022-11-15T13:28:42;98360.30;;;12.17;100.00
12536;BME280;6334;48.696;2.114;2022-11-15T13:31:28;98362.33;;;12.19;100.00
12536;BME280;6334;48.696;2.114;2022-11-15T13:34:26;98355.72;;;12.25;100.00
12536;BME280;6334;48.696;2.114;2022-11-15T13:36:55;98350.04;;;12.24;100.00
12536;BME280;6334;48.696;2.114;2022-11-15T13:39:26;98348.66;;;12.23;100.00
12536;BME280;6334;48.696;2.114;2022-11-15T13:41:56;98348.41;;;12.28;100.00
12536;BME280;6334;48.696;2.114;2022-11-15T13:44:28;98346.37;;;12.39;100.00
12536;BME280;6334;48.696;2.114;2022-11-15T13:47:19;98338.66;;;12.31;100.00
12536;BME280;6334;48.696;2.114;2022-11-15T13:49:46;98330.63;;;12.38;100.00
12536;BME280;6334;48.696;2.114;2022-11-15T13:52:16;98332.48;;;12.25;100.00
12536;BME280;6334;48.696;2.114;2022-11-15T13:55:16;98329.14;;;12.33;100.00
12536;BME280;6334;48.696;2.114;2022-11-15T13:57:25;98317.30;;;12.41;100.00
12536;BME280;6334;48.696;2.114;2022-11-15T13:59:59;98311.40;;;12.39;100.00
12536;BME280;6334;48.696;2.114;2022-11-15T14:02:31;98292.53;;;12.32;100.00
12536;BME280;6334;48.696;2.114;2022-11-15T14:05:11;98294.64;;;12.28;100.00
12536;BME280;6334;48.696;2.114;2022-11-15T14:07:33;98295.23;;;12.44;100.00
12536;BME280;6334;48.696;2.114;2022-11-15T14:10:36;98280.50;;;12.34;100.00
12536;BME280;6334;48.696;2.114;2022-11-15T14:13:30;98277.73;;;12.32;100.00
12536;BME280;6334;48.696;2.114;2022-11-15T14:15:37;98274.56;;;12.52;100.00
12536;BME280;6334;48.696;2.114;2022-11-15T14:18:38;98268.47;;;12.41;100.00
12536;BME280;6334;48.696;2.114;2022-11-15T14:20:39;98265.19;;;12.33;100.00
12536;BME280;6334;48.696;2.114;2022-11-15T14:23:24;98264.86;;;12.49;100.00
12536;BME280;6334;48.696;2.114;2022-11-15T14:25:53;98265.23;;;12.35;100.00
12536;BME280;6334;48.696;2.114;2022-11-15T14:30:56;98267.91;;;12.33;100.00
12536;BME280;6334;48.696;2.114;2022-11-15T14:33:32;98270.41;;;12.38;100.00
12536;BME280;6334;48.696;2.114;2022-11-15T14:36:13;98267.27;;;12.44;100.00
12536;BME280;6334;48.696;2.114;2022-11-15T14:38:45;98259.64;;;12.54;100.00
12536;BME280;6334;48.696;2.114;2022-11-15T14:41:23;98258.11;;;12.42;100.00
12536;BME280;6334;48.696;2.114;2022-11-15T14:43:52;98259.95;;;12.37;100.00
12536;BME280;6334;48.696;2.114;2022-11-15T14:46:24;98251.39;;;12.35;100.00
12536;BME280;6334;48.696;2.114;2022-11-15T14:48:55;98242.41;;;12.56;100.00
12536;BME280;6334;48.696;2.114;2022-11-15T14:53:59;98239.82;;;12.45;100.00
12536;BME280;6334;48.696;2.114;2022-11-15T14:56:29;98241.84;;;12.33;100.00
12536;BME280;6334;48.696;2.114;2022-11-15T14:59:00;98237.73;;;12.44;100.00
12536;BME280;6334;48.696;2.114;2022-11-15T15:01:31;98238.77;;;12.41;100.00
12536;BME280;6334;48.696;2.114;2022-11-15T15:04:02;98231.73;;;12.62;100.00
12536;BME280;6334;48.696;2.114;2022-11-15T15:06:32;98223.11;;;12.56;100.00
12536;BME280;6334;48.696;2.114;2022-11-15T15:09:02;98222.77;;;12.56;100.00
12536;BME280;6334;48.696;2.114;2022-11-15T15:11:33;98221.39;;;12.52;100.00
12536;BME280;6334;48.696;2.114;2022-11-15T15:14:04;98219.11;;;12.57;100.00
12536;BME280;6334;48.696;2.114;2022-11-15T15:16:33;98222.50;;;12.54;100.00
12536;BME280;6334;48.696;2.114;2022-11-15T15:19:04;98224.41;;;12.56;100.00
12536;BME280;6334;48.696;2.114;2022-11-15T15:21:35;98222.81;;;12.58;100.00
12536;BME280;6334;48.696;2.114;2022-11-15T15:24:05;98210.92;;;12.76;100.00
12536;BME280;6334;48.696;2.114;2022-11-15T15:26:38;98208.07;;;12.52;100.00